sensor_id;sensor_type;location;lat;lon;timestamp;pressure;altitude;pressure_sealevel;temperature;humidity
36354;BME280;22383;51.114;13.666;2023-04-01T00:00:07;68012.38;;;7.46;100.00
36354;BME280;22383;51.114;13.666;2023-04-01T00:02:37;68017.28;;;7.48;100.00
36354;BME280;22383;51.114;13.666;2023-04-01T00:05:05;68016.72;;;7.48;100.00
36354;BME280;22383;51.114;13.666;2023-04-01T00:07:33;68019.91;;;7.48;100.00
36354;BME280;22383;51.114;13.666;2023-04-01T00:10:00;68017.47;;;7.51;100.00
36354;BME280;22383;51.114;13.666;2023-04-01T00:12:27;68021.81;;;7.52;100.00
36354;BME280;22383;51.114;13.666;2023-04-01T00:14:55;68022.56;;;7.55;100.00
36354;BME280;22383;51.114;13.666;2023-04-01T00:17:22;68027.09;;;7.60;100.00
36354;BME280;22383;51.114;13.666;2023-04-01T00:19:49;68029.34;;;7.62;100.00
36354;BME280;22383;51.114;13.666;2023-04-01T00:22:16;68038.41;;;7.70;100.00
36354;BME280;22383;51.114;13.666;2023-04-01T00:24:43;68041.59;;;7.70;100.00
36354;BME280;22383;51.114;13.666;2023-04-01T00:27:10;68035.56;;;7.67;100.00
36354;BME280;22383;51.114;13.666;2023-04-01T00:29:38;68037.09;;;7.66;100.00
36354;BME280;22383;51.114;13.666;2023-04-01T00:32:05;68033.31;;;7.65;100.00
36354;BME280;22383;51.114;13.666;2023-04-01T00:34:32;68037.09;;;7.66;100.00
36354;BME280;22383;51.114;13.666;2023-04-01T00:36:59;68028.41;;;7.63;100.00
36354;BME280;22383;51.114;13.666;2023-04-01T00:39:30;68029.53;;;7.57;100.00
36354;BME280;22383;51.114;13.666;2023-04-01T00:41:59;68021.63;;;7.57;100.00
36354;BME280;22383;51.114;13.666;2023-04-01T00:44:30;68029.34;;;7.62;100.00
36354;BME280;22383;51.114;13.666;2023-04-01T00:46:58;68031.44;;;7.61;100.00
36354;BME280;22383;51.114;13.666;2023-04-01T00:49:32;68025.41;;;7.58;100.00
36354;BME280;22383;51.114;13.666;2023-04-01T00:52:02;68028.78;;;7.61;100.00
36354;BME280;22383;51.114;13.666;2023-04-01T00:54:31;68032.16;;;7.64;100.00
36354;BME280;22383;51.114;13.666;2023-04-01T00:57:01;68030.66;;;7.58;100.00
36354;BME280;22383;51.114;13.666;2023-04-01T00:59:33;68024.25;;;7.57;100.00
36354;BME280;22383;51.114;13.666;2023-04-01T01:02:07;68027.47;;;7.57;100.00
36354;BME280;22383;51.114;13.666;2023-04-01T01:04:35;68025.78;;;7.56;100.00
36354;BME280;22383;51.114;13.666;2023-04-01T01:12:25;68029.34;;;7.62;100.00
36354;BME280;22383;51.114;13.666;2023-04-01T01:32:03;68033.88;;;7.66;100.00
36354;BME280;22383;51.114;13.666;2023-04-01T01:37:43;68031.63;;;7.64;100.00
36354;BME280;22383;51.114;13.666;2023-04-01T01:40:13;68029.16;;;7.59;100.00
36354;BME280;22383;51.114;13.666;2023-04-01T01:42:50;68041.41;;;7.68;100.00
36354;BME280;22383;51.114;13.666;2023-04-01T01:45:20;68036.50;;;7.66;100.00
36354;BME280;22383;51.114;13.666;2023-04-01T01:47:48;68031.44;;;7.61;100.00
36354;BME280;22383;51.114;13.666;2023-04-01T01:50:17;68029.72;;;7.60;100.00
36354;BME280;22383;51.114;13.666;2023-04-01T01:52:45;68031.06;;;7.63;100.00
36354;BME280;22383;51.114;13.666;2023-04-01T01:55:43;68031.25;;;7.66;100.00
36354;BME280;22383;51.114;13.666;2023-04-01T01:58:54;68036.72;;;7.68;100.00
36354;BME280;22383;51.114;13.666;2023-04-01T02:01:17;68038.19;;;7.67;100.00
36354;BME280;22383;51.114;13.666;2023-04-01T02:03:47;68033.69;;;7.63;100.00
36354;BME280;22383;51.114;13.666;2023-04-01T02:06:19;68028.78;;;7.61;100.00
36354;BME280;22383;51.114;13.666;2023-04-01T02:08:54;68028.03;;;7.58;100.00
36354;BME280;22383;51.114;13.666;2023-04-01T02:11:48;68023.13;;;7.56;100.00
36354;BME280;22383;51.114;13.666;2023-04-01T02:16:54;68025.19;;;7.55;100.00
36354;BME280;22383;51.114;13.666;2023-04-01T02:19:31;68029.72;;;7.60;100.00
36354;BME280;22383;51.114;13.666;2023-04-01T02:22:02;68032.00;;;7.62;100.00
36354;BME280;22383;51.114;13.666;2023-04-01T02:24:32;68027.09;;;7.60;100.00
36354;BME280;22383;51.114;13.666;2023-04-01T02:27:01;68029.16;;;7.59;100.00
36354;BME280;22383;51.114;13.666;2023-04-01T02:29:30;68023.50;;;7.54;100.00
36354;BME280;22383;51.114;13.666;2023-04-01T02:31:58;68001.13;;;7.57;100.00
36354;BME280;22383;51.114;13.666;2023-04-01T02:34:27;68029.16;;;7.59;100.00
36354;BME280;22383;51.114;13.666;2023-04-01T02:36:56;68028.41;;;7.56;100.00
36354;BME280;22383;51.114;13.666;2023-04-01T02:39:24;68024.25;;;7.57;100.00
36354;BME280;22383;51.114;13.666;2023-04-01T02:41:53;68025.19;;;7.55;100.00
36354;BME280;22383;51.114;13.666;2023-04-01T02:44:20;68024.06;;;7.54;100.00
36354;BME280;22383;51.114;13.666;2023-04-01T02:46:47;68024.06;;;7.54;100.00
36354;BME280;22383;51.114;13.666;2023-04-01T02:49:15;68026.53;;;7.59;100.00
36354;BME280;22383;51.114;13.666;2023-04-01T02:51:42;68020.50;;;7.56;100.00
36354;BME280;22383;51.114;13.666;2023-04-01T02:54:09;68019.19;;;7.52;100.00
36354;BME280;22383;51.114;13.666;2023-04-01T02:56:37;68022.94;;;7.53;100.00
36354;BME280;22383;51.114;13.666;2023-04-01T02:59:04;68020.88;;;7.54;100.00
36354;BME280;22383;51.114;13.666;2023-04-01T03:01:32;68025.19;;;7.55;100.00
36354;BME280;22383;51.114;13.666;2023-04-01T03:04:02;68025.19;;;7.55;100.00
36354;BME280;22383;51.114;13.666;2023-04-01T03:06:30;68024.25;;;7.57;100.00
36354;BME280;22383;51.114;13.666;2023-04-01T03:08:58;68028.41;;;7.56;100.00
36354;BME280;22383;51.114;13.666;2023-04-01T03:11:26;68023.13;;;7.56;100.00
36354;BME280;22383;51.114;13.666;2023-04-01T03:13:53;68028.97;;;7.56;100.00
36354;BME280;22383;51.114;13.666;2023-04-01T03:16:23;68027.81;;;7.55;100.00
36354;BME280;22383;51.114;13.666;2023-04-01T03:18:51;68019.75;;;7.53;100.00
36354;BME280;22383;51.114;13.666;2023-04-01T03:21:24;68022.56;;;7.55;100.00
36354;BME280;22383;51.114;13.666;2023-04-01T03:23:54;68019.75;;;7.53;100.00
36354;BME280;22383;51.114;13.666;2023-04-01T03:26:22;68015.78;;;7.49;100.00
36354;BME280;22383;51.114;13.666;2023-04-01T03:28:55;68019.34;;;7.48;100.00
36354;BME280;22383;51.114;13.666;2023-04-01T03:31:22;68018.97;;;7.50;100.00
36354;BME280;22383;51.114;13.666;2023-04-01T03:33:54;68007.13;;;7.46;100.00
36354;BME280;22383;51.114;13.666;2023-04-01T03:36:22;68011.25;;;7.45;100.00
36354;BME280;22383;51.114;13.666;2023-04-01T03:38:49;68007.31;;;7.42;100.00
36354;BME280;22383;51.114;13.666;2023-04-01T03:41:24;68014.47;;;7.46;100.00
36354;BME280;22383;51.114;13.666;2023-04-01T03:43:56;68013.91;;;7.45;100.00
36354;BME280;22383;51.114;13.666;2023-04-01T03:46:24;68011.44;;;7.48;100.00
36354;BME280;22383;51.114;13.666;2023-04-01T03:48:52;68010.13;;;7.44;100.00
36354;BME280;22383;51.114;13.666;2023-04-01T03:51:19;68009.56;;;7.44;100.00
36354;BME280;22383;51.114;13.666;2023-04-01T03:53:52;68014.84;;;7.44;100.00
36354;BME280;22383;51.114;13.666;2023-04-01T03:56:25;68015.00;;;7.46;100.00
36354;BME280;22383;51.114;13.666;2023-04-01T03:58:55;68017.66;;;7.46;100.00
36354;BME280;22383;51.114;13.666;2023-04-01T04:01:23;68021.22;;;7.52;100.00
36354;BME280;22383;51.114;13.666;2023-04-01T04:03:55;68017.84;;;7.49;100.00
36354;BME280;22383;51.114;13.666;2023-04-01T04:06:28;68013.31;;;7.45;100.00
36354;BME280;22383;51.114;13.666;2023-04-01T04:08:55;68014.09;;;7.48;100.00
36354;BME280;22383;51.114;13.666;2023-04-01T04:11:22;68014.47;;;7.46;100.00
36354;BME280;22383;51.114;13.666;2023-04-01T04:13:51;68012.38;;;7.46;100.00
36354;BME280;22383;51.114;13.666;2023-04-01T04:16:21;68015.22;;;7.49;100.00
36354;BME280;22383;51.114;13.666;2023-04-01T04:18:56;68020.88;;;7.54;100.00
36354;BME280;22383;51.114;13.666;2023-04-01T04:21:24;68025.19;;;7.55;100.00
36354;BME280;22383;51.114;13.666;2023-04-01T04:23:51;68018.81;;;7.54;100.00
36354;BME280;22383;51.114;13.666;2023-04-01T04:26:20;68022.75;;;7.58;100.00
36354;BME280;22383;51.114;13.666;2023-04-01T04:28:55;68028.41;;;7.56;100.00
36354;BME280;22383;51.114;13.666;2023-04-01T04:31:25;68022.00;;;7.55;100.00
36354;BME280;22383;51.114;13.666;2023-04-01T04:33:55;68018.03;;;7.51;100.00
36354;BME280;22383;51.114;13.666;2023-04-01T04:36:23;68019.91;;;7.55;100.00
36354;BME280;22383;51.114;13.666;2023-04-01T04:38:52;68033.84;;;7.58;100.00
36354;BME280;22383;51.114;13.666;2023-04-01T04:41:20;68023.31;;;7.58;100.00
36354;BME280;22383;51.114;13.666;2023-04-01T04:43:54;68027.09;;;7.60;100.00
36354;BME280;22383;51.114;13.666;2023-04-01T04:46:26;68032.00;;;7.62;100.00
36354;BME280;22383;51.114;13.666;2023-04-01T04:49:00;68035.56;;;7.67;100.00
36354;BME280;22383;51.114;13.666;2023-04-01T04:51:28;68036.72;;;7.68;100.00
36354;BME280;22383;51.114;13.666;2023-04-01T04:53:55;68035.19;;;7.62;100.00
36354;BME280;22383;51.114;13.666;2023-04-01T04:56:36;68029.72;;;7.60;100.00
36354;BME280;22383;51.114;13.666;2023-04-01T04:59:13;68038.03;;;7.65;100.00
36354;BME280;22383;51.114;13.666;2023-04-01T05:01:50;68035.94;;;7.65;100.00
36354;BME280;22383;51.114;13.666;2023-04-01T05:04:17;68031.63;;;7.64;100.00
36354;BME280;22383;51.114;13.666;2023-04-01T05:06:47;68027.09;;;7.60;100.00
36354;BME280;22383;51.114;13.666;2023-04-01T05:09:16;68023.69;;;7.56;100.00
36354;BME280;22383;51.114;13.666;2023-04-01T05:11:46;68029.16;;;7.59;100.00
36354;BME280;22383;51.114;13.666;2023-04-01T05:14:16;68022.56;;;7.55;100.00
36354;BME280;22383;51.114;13.666;2023-04-01T05:16:53;68025.97;;;7.58;100.00
36354;BME280;22383;51.114;13.666;2023-04-01T05:19:21;68029.16;;;7.59;100.00
36354;BME280;22383;51.114;13.666;2023-04-01T05:21:48;68032.34;;;7.60;100.00
36354;BME280;22383;51.114;13.666;2023-04-01T05:24:15;68029.34;;;7.62;100.00
36354;BME280;22383;51.114;13.666;2023-04-01T05:26:47;68033.47;;;7.61;100.00
36354;BME280;22383;51.114;13.666;2023-04-01T05:29:15;68022.75;;;7.58;100.00
36354;BME280;22383;51.114;13.666;2023-04-01T05:31:49;68028.78;;;7.61;100.00
36354;BME280;22383;51.114;13.666;2023-04-01T05:34:16;68032.91;;;7.60;100.00
36354;BME280;22383;51.114;13.666;2023-04-01T05:36:47;68030.50;;;7.63;100.00
36354;BME280;22383;51.114;13.666;2023-04-01T05:39:16;68036.50;;;7.66;100.00
36354;BME280;22383;51.114;13.666;2023-04-01T05:41:44;68035.56;;;7.67;100.00
36354;BME280;22383;51.114;13.666;2023-04-01T05:44:14;68042.53;;;7.69;100.00
36354;BME280;22383;51.114;13.666;2023-04-01T05:46:42;68036.34;;;7.70;100.00
36354;BME280;22383;51.114;13.666;2023-04-01T05:49:16;68036.72;;;7.68;100.00
36354;BME280;22383;51.114;13.666;2023-04-01T05:51:43;68042.16;;;7.71;100.00
36354;BME280;22383;51.114;13.666;2023-04-01T05:54:11;68040.84;;;7.74;100.00
36354;BME280;22383;51.114;13.666;2023-04-01T05:56:38;68045.19;;;7.76;100.00
36354;BME280;22383;51.114;13.666;2023-04-01T05:59:10;68042.38;;;7.73;100.00
36354;BME280;22383;51.114;13.666;2023-04-01T06:01:40;68043.84;;;7.72;100.00
36354;BME280;22383;51.114;13.666;2023-04-01T06:04:13;68043.50;;;7.74;100.00
36354;BME280;22383;51.114;13.666;2023-04-01T06:06:40;68048.38;;;7.76;100.00
36354;BME280;22383;51.114;13.666;2023-04-01T06:09:19;68051.59;;;7.77;100.00
36354;BME280;22383;51.114;13.666;2023-04-01T06:12:13;68051.41;;;7.82;100.00
36354;BME280;22383;51.114;13.666;2023-04-01T06:23:33;68068.59;;;8.00;100.00
36354;BME280;22383;51.114;13.666;2023-04-01T06:26:23;68083.47;;;8.08;100.00
36354;BME280;22383;51.114;13.666;2023-04-01T06:29:09;68082.34;;;8.07;100.00
36354;BME280;22383;51.114;13.666;2023-04-01T06:32:08;68083.28;;;8.13;100.00
36354;BME280;22383;51.114;13.666;2023-04-01T06:35:12;68097.06;;;8.21;100.00
36354;BME280;22383;51.114;13.666;2023-04-01T06:43:48;68110.06;;;8.32;100.00
36354;BME280;22383;51.114;13.666;2023-04-01T06:49:55;68127.25;;;8.50;100.00
36354;BME280;22383;51.114;13.666;2023-04-01T06:52:56;68131.78;;;8.55;100.00
36354;BME280;22383;51.114;13.666;2023-04-01T06:55:57;68138.59;;;8.61;100.00
36354;BME280;22383;51.114;13.666;2023-04-01T06:58:58;68150.09;;;8.66;100.00
36354;BME280;22383;51.114;13.666;2023-04-01T07:01:42;68156.31;;;8.72;100.00
36354;BME280;22383;51.114;13.666;2023-04-01T07:04:40;68163.66;;;8.79;100.00
36354;BME280;22383;51.114;13.666;2023-04-01T07:13:36;68165.19;;;8.85;100.00
36354;BME280;22383;51.114;13.666;2023-04-01T07:19:11;68169.50;;;8.86;100.00
36354;BME280;22383;51.114;13.666;2023-04-01T07:22:05;68161.78;;;8.82;100.00
36354;BME280;22383;51.114;13.666;2023-04-01T07:25:07;68163.84;;;8.81;100.00
36354;BME280;22383;51.114;13.666;2023-04-01T07:27:38;68171.78;;;8.88;100.00
36354;BME280;22383;51.114;13.666;2023-04-01T07:30:17;68180.28;;;8.96;100.00
36354;BME280;22383;51.114;13.666;2023-04-01T07:36:10;68176.31;;;8.93;100.00
36354;BME280;22383;51.114;13.666;2023-04-01T07:42:30;68169.13;;;8.88;100.00
36354;BME280;22383;51.114;13.666;2023-04-01T07:47:22;68179.72;;;9.03;100.00
36354;BME280;22383;51.114;13.666;2023-04-01T07:50:18;68183.88;;;9.02;100.00
36354;BME280;22383;51.114;13.666;2023-04-01T07:56:06;68203.13;;;9.19;100.00
36354;BME280;22383;51.114;13.666;2023-04-01T08:04:30;68215.94;;;9.36;100.00
36354;BME280;22383;51.114;13.666;2023-04-01T08:07:10;68221.44;;;9.31;100.00
36354;BME280;22383;51.114;13.666;2023-04-01T08:10:03;68207.09;;;9.23;100.00
36354;BME280;22383;51.114;13.666;2023-04-01T08:16:17;68217.84;;;9.33;100.00
36354;BME280;22383;51.114;13.666;2023-04-01T08:21:52;68242.38;;;9.50;100.00
36354;BME280;22383;51.114;13.666;2023-04-01T08:24:34;68241.81;;;9.57;100.00
36354;BME280;22383;51.114;13.666;2023-04-01T08:27:28;68277.91;;;9.87;100.00
36354;BME280;22383;51.114;13.666;2023-04-01T08:32:41;68262.97;;;9.71;100.00
36354;BME280;22383;51.114;13.666;2023-04-01T08:35:23;68263.91;;;9.77;100.00
36354;BME280;22383;51.114;13.666;2023-04-01T08:38:07;68265.97;;;9.76;100.00
36354;BME280;22383;51.114;13.666;2023-04-01T08:53:06;68291.28;;;9.97;100.00
36354;BME280;22383;51.114;13.666;2023-04-01T09:10:17;68320.56;;;10.28;100.00
36354;BME280;22383;51.114;13.666;2023-04-01T09:25:02;68265.63;;;9.78;100.00
36354;BME280;22383;51.114;13.666;2023-04-01T09:27:57;68264.09;;;9.72;100.00
36354;BME280;22383;51.114;13.666;2023-04-01T09:30:55;68257.88;;;9.74;100.00
36354;BME280;22383;51.114;13.666;2023-04-01T09:37:35;68273.34;;;9.83;100.00
36354;BME280;22383;51.114;13.666;2023-04-01T09:39:38;68291.13;;;9.94;100.00
36354;BME280;22383;51.114;13.666;2023-04-01T09:44:57;68302.63;;;10.07;100.00
36354;BME280;22383;51.114;13.666;2023-04-01T10:22:17;68342.53;;;10.46;100.00
36354;BME280;22383;51.114;13.666;2023-04-01T10:24:55;68321.13;;;10.29;100.00
36354;BME280;22383;51.114;13.666;2023-04-01T10:36:31;68297.72;;;10.05;100.00
36354;BME280;22383;51.114;13.666;2023-04-01T10:50:58;68245.78;;;9.53;100.00
36354;BME280;22383;51.114;13.666;2023-04-01T10:53:37;68245.97;;;9.56;100.00
36354;BME280;22383;51.114;13.666;2023-04-01T10:56:46;68236.16;;;9.44;100.00
36354;BME280;22383;51.114;13.666;2023-04-01T11:03:22;68241.06;;;9.54;100.00
36354;BME280;22383;51.114;13.666;2023-04-01T11:12:21;68304.50;;;10.11;100.00
36354;BME280;22383;51.114;13.666;2023-04-01T11:23:33;68367.63;;;10.71;100.00
36354;BME280;22383;51.114;13.666;2023-04-01T11:29:30;68342.53;;;10.46;100.00
36354;BME280;22383;51.114;13.666;2023-04-01T11:32:42;68350.28;;;10.50;100.00
36354;BME280;22383;51.114;13.666;2023-04-01T11:38:11;68418.50;;;11.14;100.00
36354;BME280;22383;51.114;13.666;2023-04-01T11:44:31;68520.66;;;12.07;100.00
36354;BME280;22383;51.114;13.666;2023-04-01T11:50:15;68467.09;;;11.56;100.00
36354;BME280;22383;51.114;13.666;2023-04-01T11:53:14;68438.91;;;11.33;100.00
36354;BME280;22383;51.114;13.666;2023-04-01T12:07:20;68447.41;;;11.41;100.00
36354;BME280;22383;51.114;13.666;2023-04-01T12:10:16;68360.28;;;10.64;100.00
36354;BME280;22383;51.114;13.666;2023-04-01T12:15:59;68319.44;;;10.20;100.00
36354;BME280;22383;51.114;13.666;2023-04-01T12:21:29;68373.69;;;10.74;100.00
36354;BME280;22383;51.114;13.666;2023-04-01T12:24:25;68384.47;;;10.84;100.00
36354;BME280;22383;51.114;13.666;2023-04-01T12:27:28;68378.59;;;10.83;100.00
36354;BME280;22383;51.114;13.666;2023-04-01T12:33:02;68398.47;;;10.94;100.00
36354;BME280;22383;51.114;13.666;2023-04-01T12:48:05;68439.88;;;11.31;100.00
36354;BME280;22383;51.114;13.666;2023-04-01T13:00:43;68493.38;;;11.82;100.00
36354;BME280;22383;51.114;13.666;2023-04-01T13:03:27;68584.22;;;12.64;100.00
36354;BME280;22383;51.114;13.666;2023-04-01T13:09:15;68565.28;;;12.52;100.00
36354;BME280;22383;51.114;13.666;2023-04-01T13:17:20;68454.25;;;11.47;100.00
36354;BME280;22383;51.114;13.666;2023-04-01T13:19:57;68436.66;;;11.31;100.00
36354;BME280;22383;51.114;13.666;2023-04-01T13:22:54;68422.47;;;11.18;100.00
36354;BME280;22383;51.114;13.666;2023-04-01T13:29:04;68454.81;;;11.47;100.00
36354;BME280;22383;51.114;13.666;2023-04-01T13:34:59;68466.91;;;11.61;100.00
36354;BME280;22383;51.114;13.666;2023-04-01T13:43:08;68404.50;;;10.97;100.00
36354;BME280;22383;51.114;13.666;2023-04-01T13:48:54;68410.94;;;11.05;100.00
36354;BME280;22383;51.114;13.666;2023-04-01T13:51:52;68427.38;;;11.20;100.00
36354;BME280;22383;51.114;13.666;2023-04-01T13:54:49;68403.00;;;10.98;100.00
36354;BME280;22383;51.114;13.666;2023-04-01T13:57:43;68373.69;;;10.74;100.00
36354;BME280;22383;51.114;13.666;2023-04-01T14:08:46;68359.53;;;10.61;100.00
36354;BME280;22383;51.114;13.666;2023-04-01T14:17:30;68383.72;;;10.81;100.00
36354;BME280;22383;51.114;13.666;2023-04-01T14:20:25;68429.84;;;11.25;100.00
36354;BME280;22383;51.114;13.666;2023-04-01T14:23:30;68461.63;;;11.53;100.00
36354;BME280;22383;51.114;13.666;2023-04-01T14:28:44;68417.38;;;11.13;100.00
36354;BME280;22383;51.114;13.666;2023-04-01T14:31:33;68410.56;;;11.07;100.00
36354;BME280;22383;51.114;13.666;2023-04-01T14:43:04;68385.03;;;10.84;100.00
36354;BME280;22383;51.114;13.666;2023-04-01T14:45:52;68368.22;;;10.64;100.00
36354;BME280;22383;51.114;13.666;2023-04-01T14:48:37;68358.94;;;10.60;100.00
36354;BME280;22383;51.114;13.666;2023-04-01T14:51:16;68425.88;;;11.21;100.00
36354;BME280;22383;51.114;13.666;2023-04-01T14:56:51;68486.00;;;11.76;100.00
36354;BME280;22383;51.114;13.666;2023-04-01T14:59:48;68495.47;;;11.82;100.00
36354;BME280;22383;51.114;13.666;2023-04-01T15:02:57;68440.03;;;11.34;100.00
36354;BME280;22383;51.114;13.666;2023-04-01T15:05:51;68416.78;;;11.13;100.00
36354;BME280;22383;51.114;13.666;2023-04-01T15:08:29;68377.09;;;10.77;100.00
36354;BME280;22383;51.114;13.666;2023-04-01T15:27:49;68334.03;;;10.38;100.00
36354;BME280;22383;51.114;13.666;2023-04-01T15:30:49;68320.97;;;10.48;100.00
36354;BME280;22383;51.114;13.666;2023-04-01T15:45:47;68329.84;;;10.32;100.00
36354;BME280;22383;51.114;13.666;2023-04-01T15:48:44;68309.06;;;10.15;100.00
36354;BME280;22383;51.114;13.666;2023-04-01T16:03:08;68298.66;;;10.03;100.00
36354;BME280;22383;51.114;13.666;2023-04-01T16:06:11;68299.81;;;10.05;100.00
36354;BME280;22383;51.114;13.666;2023-04-01T16:11:42;68289.59;;;9.95;100.00
36354;BME280;22383;51.114;13.666;2023-04-01T16:14:28;68294.50;;;9.97;100.00
36354;BME280;22383;51.114;13.666;2023-04-01T16:20:23;68279.56;;;9.89;100.00
36354;BME280;22383;51.114;13.666;2023-04-01T16:23:36;68281.66;;;9.88;100.00
36354;BME280;22383;51.114;13.666;2023-04-01T16:28:57;68278.47;;;9.88;100.00
36354;BME280;22383;51.114;13.666;2023-04-01T16:31:53;68281.09;;;9.88;100.00
36354;BME280;22383;51.114;13.666;2023-04-01T16:34:37;68285.06;;;9.91;100.00
36354;BME280;22383;51.114;13.666;2023-04-01T16:37:39;68282.41;;;9.91;100.00
36354;BME280;22383;51.114;13.666;2023-04-01T16:45:41;68261.28;;;9.70;100.00
36354;BME280;22383;51.114;13.666;2023-04-01T16:48:17;68257.31;;;9.73;100.00
36354;BME280;22383;51.114;13.666;2023-04-01T16:50:59;68262.00;;;9.73;100.00
36354;BME280;22383;51.114;13.666;2023-04-01T16:53:49;68267.13;;;9.77;100.00
36354;BME280;22383;51.114;13.666;2023-04-01T16:56:24;68266.19;;;9.79;100.00
36354;BME280;22383;51.114;13.666;2023-04-01T17:01:55;68254.66;;;9.66;100.00
36354;BME280;22383;51.114;13.666;2023-04-01T17:04:47;68248.06;;;9.62;100.00
36354;BME280;22383;51.114;13.666;2023-04-01T17:07:37;68237.66;;;9.51;100.00
36354;BME280;22383;51.114;13.666;2023-04-01T17:19:05;68218.59;;;9.36;100.00
36354;BME280;22383;51.114;13.666;2023-04-01T17:21:53;68216.50;;;9.29;100.00
36354;BME280;22383;51.114;13.666;2023-04-01T17:24:48;68211.22;;;9.29;100.00
36354;BME280;22383;51.114;13.666;2023-04-01T17:43:52;68202.56;;;9.19;100.00
36354;BME280;22383;51.114;13.666;2023-04-01T17:46:56;68200.84;;;9.17;100.00
36354;BME280;22383;51.114;13.666;2023-04-01T17:52:27;68193.13;;;9.13;100.00
36354;BME280;22383;51.114;13.666;2023-04-01T17:57:55;68175.97;;;9.16;100.00
36354;BME280;22383;51.114;13.666;2023-04-01T18:00:45;68204.63;;;9.18;100.00
36354;BME280;22383;51.114;13.666;2023-04-01T18:09:00;68215.19;;;9.25;100.00
36354;BME280;22383;51.114;13.666;2023-04-01T18:12:10;68204.25;;;9.20;100.00
36354;BME280;22383;51.114;13.666;2023-04-01T18:15:46;68201.78;;;9.16;100.00
36354;BME280;22383;51.114;13.666;2023-04-01T18:23:50;68187.06;;;9.02;100.00
36354;BME280;22383;51.114;13.666;2023-04-01T18:26:35;68202.56;;;9.19;100.00
36354;BME280;22383;51.114;13.666;2023-04-01T18:37:59;68219.53;;;9.34;100.00
36354;BME280;22383;51.114;13.666;2023-04-01T18:40:48;68199.72;;;9.16;100.00
36354;BME280;22383;51.114;13.666;2023-04-01T18:43:30;68194.44;;;9.09;100.00
36354;BME280;22383;51.114;13.666;2023-04-01T18:46:19;68182.38;;;9.03;100.00
36354;BME280;22383;51.114;13.666;2023-04-01T18:48:59;68173.09;;;8.92;100.00
36354;BME280;22383;51.114;13.666;2023-04-01T18:51:42;68187.44;;;9.00;100.00
36354;BME280;22383;51.114;13.666;2023-04-01T18:54:23;68171.41;;;8.91;100.00
36354;BME280;22383;51.114;13.666;2023-04-01T18:57:03;68164.06;;;8.84;100.00
36354;BME280;22383;51.114;13.666;2023-04-01T18:59:45;68159.31;;;8.77;100.00
36354;BME280;22383;51.114;13.666;2023-04-01T19:02:34;68163.47;;;8.83;100.00
36354;BME280;22383;51.114;13.666;2023-04-01T19:05:18;68148.78;;;8.70;100.00
36354;BME280;22383;51.114;13.666;2023-04-01T19:07:56;68139.53;;;8.59;100.00
36354;BME280;22383;51.114;13.666;2023-04-01T19:27:42;68124.38;;;8.41;100.00
36354;BME280;22383;51.114;13.666;2023-04-01T19:33:25;68108.75;;;8.36;100.00
36354;BME280;22383;51.114;13.666;2023-04-01T19:36:13;68108.75;;;8.36;100.00
36354;BME280;22383;51.114;13.666;2023-04-01T19:38:52;68103.47;;;8.29;100.00
36354;BME280;22383;51.114;13.666;2023-04-01T19:47:13;68089.88;;;8.17;100.00
36354;BME280;22383;51.114;13.666;2023-04-01T19:52:42;68090.25;;;8.14;100.00
36354;BME280;22383;51.114;13.666;2023-04-01T20:00:57;68058.59;;;7.93;100.00
36354;BME280;22383;51.114;13.666;2023-04-01T20:06:34;68059.53;;;7.91;100.00
36354;BME280;22383;51.114;13.666;2023-04-01T20:14:56;68057.44;;;7.85;100.00
36354;BME280;22383;51.114;13.666;2023-04-01T20:17:32;68057.06;;;7.87;100.00
36354;BME280;22383;51.114;13.666;2023-04-01T20:25:46;68064.97;;;7.94;100.00
36354;BME280;22383;51.114;13.666;2023-04-01T20:31:31;68068.94;;;7.98;100.00
36354;BME280;22383;51.114;13.666;2023-04-01T20:37:02;68042.97;;;7.95;100.00
36354;BME280;22383;51.114;13.666;2023-04-01T20:42:26;68067.25;;;7.96;100.00
36354;BME280;22383;51.114;13.666;2023-04-01T20:55:58;68070.63;;;7.99;100.00
36354;BME280;22383;51.114;13.666;2023-04-01T20:59:16;68072.72;;;7.99;100.00
36354;BME280;22383;51.114;13.666;2023-04-01T21:02:32;68059.53;;;7.91;100.00
36354;BME280;22383;51.114;13.666;2023-04-01T21:07:41;68048.41;;;7.84;100.00
36354;BME280;22383;51.114;13.666;2023-04-01T21:25:20;68025.00;;;7.53;100.00
36354;BME280;22383;51.114;13.666;2023-04-01T22:00:38;67969.59;;;7.10;100.00
36354;BME280;22383;51.114;13.666;2023-04-01T22:09:18;67968.09;;;7.04;100.00
36354;BME280;22383;51.114;13.666;2023-04-01T22:15:25;67956.97;;;6.96;100.00
36354;BME280;22383;51.114;13.666;2023-04-01T22:18:31;67952.28;;;6.89;100.00
36354;BME280;22383;51.114;13.666;2023-04-01T22:21:25;67957.34;;;6.94;100.00
36354;BME280;22383;51.114;13.666;2023-04-01T22:27:30;67938.16;;;6.84;100.00
36354;BME280;22383;51.114;13.666;2023-04-01T22:30:29;67937.59;;;6.83;100.00
36354;BME280;22383;51.114;13.666;2023-04-01T22:33:41;67939.44;;;6.80;100.00
36354;BME280;22383;51.114;13.666;2023-04-01T22:39:50;67937.56;;;6.76;100.00
36354;BME280;22383;51.114;13.666;2023-04-01T22:43:00;67930.41;;;6.72;100.00
36354;BME280;22383;51.114;13.666;2023-04-01T22:54:29;67924.19;;;6.66;100.00
36354;BME280;22383;51.114;13.666;2023-04-01T23:00:13;67918.19;;;6.63;100.00
36354;BME280;22383;51.114;13.666;2023-04-01T23:06:02;67907.41;;;6.46;100.00
36354;BME280;22383;51.114;13.666;2023-04-01T23:09:10;67885.78;;;6.31;100.00
36354;BME280;22383;51.114;13.666;2023-04-01T23:12:04;67886.91;;;6.32;100.00
36354;BME280;22383;51.114;13.666;2023-04-01T23:14:41;67881.06;;;6.24;100.00
36354;BME280;22383;51.114;13.666;2023-04-01T23:19:54;67872.00;;;6.16;100.00